sensor_id;sensor_type;location;lat;lon;timestamp;temperature;humidity
66726;HTU21D;53638;51.062;5.804;2023-11-19T00:01:34;12.72;118.99
66726;HTU21D;53638;51.062;5.804;2023-11-19T00:04:03;12.75;118.99
66726;HTU21D;53638;51.062;5.804;2023-11-19T00:06:39;12.78;118.99
66726;HTU21D;53638;51.062;5.804;2023-11-19T00:09:06;12.74;118.99
66726;HTU21D;53638;51.062;5.804;2023-11-19T00:11:36;12.71;118.99
66726;HTU21D;53638;51.062;5.804;2023-11-19T00:14:02;12.78;118.99
66726;HTU21D;53638;51.062;5.804;2023-11-19T00:16:32;12.78;118.99
66726;HTU21D;53638;51.062;5.804;2023-11-19T00:18:58;12.78;118.99
66726;HTU21D;53638;51.062;5.804;2023-11-19T00:21:25;12.80;118.99
66726;HTU21D;53638;51.062;5.804;2023-11-19T00:24:05;12.76;118.99
66726;HTU21D;53638;51.062;5.804;2023-11-19T00:26:34;12.78;118.99
66726;HTU21D;53638;51.062;5.804;2023-11-19T00:29:00;12.76;118.99
66726;HTU21D;53638;51.062;5.804;2023-11-19T00:31:26;12.86;118.99
66726;HTU21D;53638;51.062;5.804;2023-11-19T00:33:53;12.84;118.99
66726;HTU21D;53638;51.062;5.804;2023-11-19T00:36:19;12.81;118.99
66726;HTU21D;53638;51.062;5.804;2023-11-19T00:38:49;12.82;118.99
66726;HTU21D;53638;51.062;5.804;2023-11-19T00:41:27;12.84;118.99
66726;HTU21D;53638;51.062;5.804;2023-11-19T00:44:04;12.91;118.99
66726;HTU21D;53638;51.062;5.804;2023-11-19T00:46:32;13.02;118.99
66726;HTU21D;53638;51.062;5.804;2023-11-19T00:48:58;13.01;118.99
66726;HTU21D;53638;51.062;5.804;2023-11-19T00:51:28;12.97;118.99
66726;HTU21D;53638;51.062;5.804;2023-11-19T00:53:58;13.03;118.99
66726;HTU21D;53638;51.062;5.804;2023-11-19T00:56:26;13.03;118.99
66726;HTU21D;53638;51.062;5.804;2023-11-19T00:59:00;13.06;118.99
66726;HTU21D;53638;51.062;5.804;2023-11-19T01:01:26;13.04;118.99
66726;HTU21D;53638;51.062;5.804;2023-11-19T01:03:52;13.01;118.99
66726;HTU21D;53638;51.062;5.804;2023-11-19T01:06:28;13.05;118.99
66726;HTU21D;53638;51.062;5.804;2023-11-19T01:08:57;13.00;118.99
66726;HTU21D;53638;51.062;5.804;2023-11-19T01:11:23;13.07;118.99
66726;HTU21D;53638;51.062;5.804;2023-11-19T01:13:50;13.04;118.99
66726;HTU21D;53638;51.062;5.804;2023-11-19T01:16:17;13.09;118.99
66726;HTU21D;53638;51.062;5.804;2023-11-19T01:18:43;13.15;118.99
66726;HTU21D;53638;51.062;5.804;2023-11-19T01:21:54;13.21;118.99
66726;HTU21D;53638;51.062;5.804;2023-11-19T01:25:05;13.20;118.99
66726;HTU21D;53638;51.062;5.804;2023-11-19T01:27:53;13.18;118.99
66726;HTU21D;53638;51.062;5.804;2023-11-19T01:30:27;13.20;118.99
66726;HTU21D;53638;51.062;5.804;2023-11-19T01:32:53;13.21;118.99
66726;HTU21D;53638;51.062;5.804;2023-11-19T01:35:32;13.25;118.99
66726;HTU21D;53638;51.062;5.804;2023-11-19T01:38:00;13.30;118.99
66726;HTU21D;53638;51.062;5.804;2023-11-19T01:40:26;13.31;118.99
66726;HTU21D;53638;51.062;5.804;2023-11-19T01:42:54;13.22;118.99
66726;HTU21D;53638;51.062;5.804;2023-11-19T01:45:28;13.16;118.99
66726;HTU21D;53638;51.062;5.804;2023-11-19T01:48:16;13.10;118.99
66726;HTU21D;53638;51.062;5.804;2023-11-19T01:51:00;13.08;118.99
66726;HTU21D;53638;51.062;5.804;2023-11-19T01:53:40;13.10;118.99
66726;HTU21D;53638;51.062;5.804;2023-11-19T01:56:37;13.04;118.99
66726;HTU21D;53638;51.062;5.804;2023-11-19T01:59:35;13.07;118.99
66726;HTU21D;53638;51.062;5.804;2023-11-19T02:02:17;13.07;118.99
66726;HTU21D;53638;51.062;5.804;2023-11-19T02:04:51;12.97;118.99
66726;HTU21D;53638;51.062;5.804;2023-11-19T02:07:21;12.94;118.99
66726;HTU21D;53638;51.062;5.804;2023-11-19T02:09:49;12.92;118.99
66726;HTU21D;53638;51.062;5.804;2023-11-19T02:12:17;12.89;118.99
66726;HTU21D;53638;51.062;5.804;2023-11-19T02:14:43;12.97;118.99
66726;HTU21D;53638;51.062;5.804;2023-11-19T02:17:43;12.94;118.99
66726;HTU21D;53638;51.062;5.804;2023-11-19T02:20:18;12.95;118.99
66726;HTU21D;53638;51.062;5.804;2023-11-19T02:23:08;12.91;118.99
66726;HTU21D;53638;51.062;5.804;2023-11-19T02:26:25;12.93;118.99
66726;HTU21D;53638;51.062;5.804;2023-11-19T02:29:39;12.87;118.99
66726;HTU21D;53638;51.062;5.804;2023-11-19T02:32:06;12.86;118.99
66726;HTU21D;53638;51.062;5.804;2023-11-19T02:34:54;12.80;118.99
66726;HTU21D;53638;51.062;5.804;2023-11-19T02:37:23;12.89;118.99
66726;HTU21D;53638;51.062;5.804;2023-11-19T02:39:49;12.82;118.99
66726;HTU21D;53638;51.062;5.804;2023-11-19T02:42:17;12.84;118.99
66726;HTU21D;53638;51.062;5.804;2023-11-19T02:44:45;12.91;118.99
66726;HTU21D;53638;51.062;5.804;2023-11-19T02:47:11;12.86;118.99
66726;HTU21D;53638;51.062;5.804;2023-11-19T02:49:37;12.91;118.99
66726;HTU21D;53638;51.062;5.804;2023-11-19T02:52:26;12.73;118.99
66726;HTU21D;53638;51.062;5.804;2023-11-19T02:54:53;12.66;118.99
66726;HTU21D;53638;51.062;5.804;2023-11-19T02:57:19;12.74;118.99
66726;HTU21D;53638;51.062;5.804;2023-11-19T02:59:46;12.60;118.99
66726;HTU21D;53638;51.062;5.804;2023-11-19T03:02:12;12.63;118.99
66726;HTU21D;53638;51.062;5.804;2023-11-19T03:04:41;12.65;118.99
66726;HTU21D;53638;51.062;5.804;2023-11-19T03:07:09;12.58;118.99
66726;HTU21D;53638;51.062;5.804;2023-11-19T03:09:35;12.57;118.99
66726;HTU21D;53638;51.062;5.804;2023-11-19T03:12:02;12.50;118.99
66726;HTU21D;53638;51.062;5.804;2023-11-19T03:14:44;12.43;118.99
66726;HTU21D;53638;51.062;5.804;2023-11-19T03:17:10;12.45;118.99
66726;HTU21D;53638;51.062;5.804;2023-11-19T03:19:36;12.31;118.99
66726;HTU21D;53638;51.062;5.804;2023-11-19T03:22:02;12.31;118.99
66726;HTU21D;53638;51.062;5.804;2023-11-19T03:24:39;12.34;118.99
66726;HTU21D;53638;51.062;5.804;2023-11-19T03:27:05;12.31;118.99
66726;HTU21D;53638;51.062;5.804;2023-11-19T03:29:31;12.32;118.99
66726;HTU21D;53638;51.062;5.804;2023-11-19T03:32:01;12.31;118.99
66726;HTU21D;53638;51.062;5.804;2023-11-19T03:34:27;12.31;118.99
66726;HTU21D;53638;51.062;5.804;2023-11-19T03:36:56;12.29;118.99
66726;HTU21D;53638;51.062;5.804;2023-11-19T03:39:22;12.32;118.99
66726;HTU21D;53638;51.062;5.804;2023-11-19T03:41:51;12.35;118.99
66726;HTU21D;53638;51.062;5.804;2023-11-19T03:44:16;12.37;118.99
66726;HTU21D;53638;51.062;5.804;2023-11-19T03:46:43;12.31;118.99
66726;HTU21D;53638;51.062;5.804;2023-11-19T03:49:09;12.23;118.99
66726;HTU21D;53638;51.062;5.804;2023-11-19T03:51:35;12.32;118.99
66726;HTU21D;53638;51.062;5.804;2023-11-19T03:54:01;12.36;118.99
66726;HTU21D;53638;51.062;5.804;2023-11-19T03:59:28;12.28;118.99
66726;HTU21D;53638;51.062;5.804;2023-11-19T04:02:02;12.25;118.99
66726;HTU21D;53638;51.062;5.804;2023-11-19T04:04:28;12.28;118.99
66726;HTU21D;53638;51.062;5.804;2023-11-19T04:06:57;12.22;118.99
66726;HTU21D;53638;51.062;5.804;2023-11-19T04:10:01;12.25;118.99
66726;HTU21D;53638;51.062;5.804;2023-11-19T04:12:27;12.17;118.99
66726;HTU21D;53638;51.062;5.804;2023-11-19T04:14:53;12.18;118.99
66726;HTU21D;53638;51.062;5.804;2023-11-19T04:17:19;12.25;118.99
66726;HTU21D;53638;51.062;5.804;2023-11-19T04:19:48;12.35;118.99
66726;HTU21D;53638;51.062;5.804;2023-11-19T04:22:16;12.31;118.99
66726;HTU21D;53638;51.062;5.804;2023-11-19T04:24:48;12.34;118.99
66726;HTU21D;53638;51.062;5.804;2023-11-19T04:27:14;12.33;118.99
66726;HTU21D;53638;51.062;5.804;2023-11-19T04:29:42;12.28;118.99
66726;HTU21D;53638;51.062;5.804;2023-11-19T04:32:08;12.32;118.99
66726;HTU21D;53638;51.062;5.804;2023-11-19T04:34:34;12.31;118.99
66726;HTU21D;53638;51.062;5.804;2023-11-19T04:37:00;12.27;118.99
66726;HTU21D;53638;51.062;5.804;2023-11-19T04:39:30;12.21;118.99
66726;HTU21D;53638;51.062;5.804;2023-11-19T04:41:58;12.19;118.99
66726;HTU21D;53638;51.062;5.804;2023-11-19T04:44:25;12.25;118.99
66726;HTU21D;53638;51.062;5.804;2023-11-19T04:46:51;12.23;118.99
66726;HTU21D;53638;51.062;5.804;2023-11-19T04:49:17;12.23;118.99
66726;HTU21D;53638;51.062;5.804;2023-11-19T04:51:45;12.19;118.99
66726;HTU21D;53638;51.062;5.804;2023-11-19T04:54:12;12.18;118.99
66726;HTU21D;53638;51.062;5.804;2023-11-19T04:56:39;12.12;118.99
66726;HTU21D;53638;51.062;5.804;2023-11-19T04:59:06;12.16;118.99
66726;HTU21D;53638;51.062;5.804;2023-11-19T05:01:33;12.14;118.99
66726;HTU21D;53638;51.062;5.804;2023-11-19T05:03:59;12.14;118.99
66726;HTU21D;53638;51.062;5.804;2023-11-19T05:06:27;12.17;118.99
66726;HTU21D;53638;51.062;5.804;2023-11-19T05:08:53;12.26;118.99
66726;HTU21D;53638;51.062;5.804;2023-11-19T05:11:20;12.18;118.99
66726;HTU21D;53638;51.062;5.804;2023-11-19T05:13:46;12.12;118.99
66726;HTU21D;53638;51.062;5.804;2023-11-19T05:16:12;12.17;118.99
66726;HTU21D;53638;51.062;5.804;2023-11-19T05:18:40;12.21;118.99
66726;HTU21D;53638;51.062;5.804;2023-11-19T05:21:06;12.12;118.99
66726;HTU21D;53638;51.062;5.804;2023-11-19T05:23:33;12.15;118.99
66726;HTU21D;53638;51.062;5.804;2023-11-19T05:26:01;12.06;118.99
66726;HTU21D;53638;51.062;5.804;2023-11-19T05:28:27;12.06;118.99
66726;HTU21D;53638;51.062;5.804;2023-11-19T05:30:52;12.10;118.99
66726;HTU21D;53638;51.062;5.804;2023-11-19T05:33:18;12.12;118.99
66726;HTU21D;53638;51.062;5.804;2023-11-19T05:35:44;12.25;118.99
66726;HTU21D;53638;51.062;5.804;2023-11-19T05:38:10;12.17;118.99
66726;HTU21D;53638;51.062;5.804;2023-11-19T05:40:46;12.20;118.99
66726;HTU21D;53638;51.062;5.804;2023-11-19T05:43:13;12.16;118.99
66726;HTU21D;53638;51.062;5.804;2023-11-19T05:45:40;12.10;118.99
66726;HTU21D;53638;51.062;5.804;2023-11-19T05:48:06;12.01;118.99
66726;HTU21D;53638;51.062;5.804;2023-11-19T05:50:34;11.98;118.99
66726;HTU21D;53638;51.062;5.804;2023-11-19T05:53:00;12.03;118.99
66726;HTU21D;53638;51.062;5.804;2023-11-19T05:55:27;12.07;118.99
66726;HTU21D;53638;51.062;5.804;2023-11-19T05:57:53;11.93;118.99
66726;HTU21D;53638;51.062;5.804;2023-11-19T06:00:19;12.02;118.99
66726;HTU21D;53638;51.062;5.804;2023-11-19T06:02:45;11.91;118.99
66726;HTU21D;53638;51.062;5.804;2023-11-19T06:05:11;11.90;118.99
66726;HTU21D;53638;51.062;5.804;2023-11-19T06:07:37;11.89;118.99
66726;HTU21D;53638;51.062;5.804;2023-11-19T06:10:11;11.83;118.99
66726;HTU21D;53638;51.062;5.804;2023-11-19T06:12:38;11.84;118.99
66726;HTU21D;53638;51.062;5.804;2023-11-19T06:15:07;11.84;118.99
66726;HTU21D;53638;51.062;5.804;2023-11-19T06:17:34;11.84;118.99
66726;HTU21D;53638;51.062;5.804;2023-11-19T06:20:00;11.81;118.99
66726;HTU21D;53638;51.062;5.804;2023-11-19T06:22:26;11.77;118.99
66726;HTU21D;53638;51.062;5.804;2023-11-19T06:24:52;11.75;118.99
66726;HTU21D;53638;51.062;5.804;2023-11-19T06:27:18;11.79;118.99
66726;HTU21D;53638;51.062;5.804;2023-11-19T06:29:45;11.83;118.99
66726;HTU21D;53638;51.062;5.804;2023-11-19T06:32:11;11.76;118.99
66726;HTU21D;53638;51.062;5.804;2023-11-19T06:34:37;11.81;118.99
66726;HTU21D;53638;51.062;5.804;2023-11-19T06:37:04;11.82;118.99
66726;HTU21D;53638;51.062;5.804;2023-11-19T06:39:30;11.73;118.99
66726;HTU21D;53638;51.062;5.804;2023-11-19T06:41:56;11.66;118.99
66726;HTU21D;53638;51.062;5.804;2023-11-19T06:44:22;11.67;118.99
66726;HTU21D;53638;51.062;5.804;2023-11-19T06:46:48;11.66;118.99
66726;HTU21D;53638;51.062;5.804;2023-11-19T06:49:14;11.72;118.99
66726;HTU21D;53638;51.062;5.804;2023-11-19T06:51:42;11.66;118.99
66726;HTU21D;53638;51.062;5.804;2023-11-19T06:54:09;11.72;118.99
66726;HTU21D;53638;51.062;5.804;2023-11-19T06:56:35;11.70;118.99
66726;HTU21D;53638;51.062;5.804;2023-11-19T06:59:01;11.73;118.99
66726;HTU21D;53638;51.062;5.804;2023-11-19T07:01:26;11.87;118.99
66726;HTU21D;53638;51.062;5.804;2023-11-19T07:03:52;11.82;118.99
66726;HTU21D;53638;51.062;5.804;2023-11-19T07:06:20;11.85;118.99
66726;HTU21D;53638;51.062;5.804;2023-11-19T07:08:46;11.89;118.99
66726;HTU21D;53638;51.062;5.804;2023-11-19T07:11:13;11.89;118.99
66726;HTU21D;53638;51.062;5.804;2023-11-19T07:13:40;11.88;118.99
66726;HTU21D;53638;51.062;5.804;2023-11-19T07:16:07;11.85;118.99
66726;HTU21D;53638;51.062;5.804;2023-11-19T07:18:35;11.84;118.99
66726;HTU21D;53638;51.062;5.804;2023-11-19T07:21:02;11.77;118.99
66726;HTU21D;53638;51.062;5.804;2023-11-19T07:23:28;11.83;118.99
66726;HTU21D;53638;51.062;5.804;2023-11-19T07:25:54;11.79;118.99
66726;HTU21D;53638;51.062;5.804;2023-11-19T07:28:20;11.77;118.99
66726;HTU21D;53638;51.062;5.804;2023-11-19T07:30:46;11.75;118.99
66726;HTU21D;53638;51.062;5.804;2023-11-19T07:33:12;11.74;118.99
66726;HTU21D;53638;51.062;5.804;2023-11-19T07:35:39;11.79;118.99
66726;HTU21D;53638;51.062;5.804;2023-11-19T07:38:08;11.82;118.99
66726;HTU21D;53638;51.062;5.804;2023-11-19T07:40:34;11.79;118.99
66726;HTU21D;53638;51.062;5.804;2023-11-19T07:43:02;11.83;118.99
66726;HTU21D;53638;51.062;5.804;2023-11-19T07:45:41;11.89;118.99
66726;HTU21D;53638;51.062;5.804;2023-11-19T07:48:10;11.96;118.99
66726;HTU21D;53638;51.062;5.804;2023-11-19T07:50:39;11.93;118.99
66726;HTU21D;53638;51.062;5.804;2023-11-19T07:53:07;12.01;118.99
66726;HTU21D;53638;51.062;5.804;2023-11-19T07:55:33;12.08;118.99
66726;HTU21D;53638;51.062;5.804;2023-11-19T07:58:00;12.13;118.99
66726;HTU21D;53638;51.062;5.804;2023-11-19T08:00:26;12.10;118.99
66726;HTU21D;53638;51.062;5.804;2023-11-19T08:02:53;12.13;118.99
66726;HTU21D;53638;51.062;5.804;2023-11-19T08:05:19;12.06;118.99
66726;HTU21D;53638;51.062;5.804;2023-11-19T08:07:44;12.08;118.99
66726;HTU21D;53638;51.062;5.804;2023-11-19T08:10:10;12.16;118.99
66726;HTU21D;53638;51.062;5.804;2023-11-19T08:12:37;12.21;118.99
66726;HTU21D;53638;51.062;5.804;2023-11-19T08:15:03;12.17;118.99
66726;HTU21D;53638;51.062;5.804;2023-11-19T08:17:30;12.23;118.99
66726;HTU21D;53638;51.062;5.804;2023-11-19T08:19:56;12.19;118.99
66726;HTU21D;53638;51.062;5.804;2023-11-19T08:22:22;12.26;118.99
66726;HTU21D;53638;51.062;5.804;2023-11-19T08:24:48;12.31;118.99
66726;HTU21D;53638;51.062;5.804;2023-11-19T08:27:14;12.25;118.99
66726;HTU21D;53638;51.062;5.804;2023-11-19T08:29:40;12.32;118.99
66726;HTU21D;53638;51.062;5.804;2023-11-19T08:32:06;12.28;118.99
66726;HTU21D;53638;51.062;5.804;2023-11-19T08:34:32;12.28;118.99
66726;HTU21D;53638;51.062;5.804;2023-11-19T08:36:59;12.36;118.99
66726;HTU21D;53638;51.062;5.804;2023-11-19T08:39:25;12.38;118.99
66726;HTU21D;53638;51.062;5.804;2023-11-19T08:41:51;12.42;118.99
66726;HTU21D;53638;51.062;5.804;2023-11-19T08:44:16;12.36;118.99
66726;HTU21D;53638;51.062;5.804;2023-11-19T08:46:52;12.49;118.99
66726;HTU21D;53638;51.062;5.804;2023-11-19T08:49:18;12.57;118.99
66726;HTU21D;53638;51.062;5.804;2023-11-19T08:51:44;12.52;118.99
66726;HTU21D;53638;51.062;5.804;2023-11-19T08:54:11;12.57;118.99
66726;HTU21D;53638;51.062;5.804;2023-11-19T08:56:38;12.63;118.99
66726;HTU21D;53638;51.062;5.804;2023-11-19T08:59:05;12.67;118.99
66726;HTU21D;53638;51.062;5.804;2023-11-19T09:01:31;12.57;118.99
66726;HTU21D;53638;51.062;5.804;2023-11-19T09:03:56;12.66;118.99
66726;HTU21D;53638;51.062;5.804;2023-11-19T09:06:23;12.70;118.99
66726;HTU21D;53638;51.062;5.804;2023-11-19T09:08:49;12.65;118.99
66726;HTU21D;53638;51.062;5.804;2023-11-19T09:11:16;12.71;118.99
66726;HTU21D;53638;51.062;5.804;2023-11-19T09:13:42;12.89;118.99
66726;HTU21D;53638;51.062;5.804;2023-11-19T09:16:08;12.91;118.99
66726;HTU21D;53638;51.062;5.804;2023-11-19T09:18:34;12.99;118.99
66726;HTU21D;53638;51.062;5.804;2023-11-19T09:21:00;13.20;118.99
66726;HTU21D;53638;51.062;5.804;2023-11-19T09:23:27;13.21;118.99
66726;HTU21D;53638;51.062;5.804;2023-11-19T09:25:58;13.31;118.99
66726;HTU21D;53638;51.062;5.804;2023-11-19T09:28:25;13.34;118.99
66726;HTU21D;53638;51.062;5.804;2023-11-19T09:30:51;13.44;118.99
66726;HTU21D;53638;51.062;5.804;2023-11-19T09:33:17;13.43;118.99
66726;HTU21D;53638;51.062;5.804;2023-11-19T09:35:43;13.44;118.99
66726;HTU21D;53638;51.062;5.804;2023-11-19T09:38:09;13.45;118.99
66726;HTU21D;53638;51.062;5.804;2023-11-19T09:40:34;13.48;118.99
66726;HTU21D;53638;51.062;5.804;2023-11-19T09:43:01;13.44;118.99
66726;HTU21D;53638;51.062;5.804;2023-11-19T09:45:27;13.30;118.99
66726;HTU21D;53638;51.062;5.804;2023-11-19T09:47:55;13.47;118.99
66726;HTU21D;53638;51.062;5.804;2023-11-19T09:50:23;13.54;118.99
66726;HTU21D;53638;51.062;5.804;2023-11-19T09:52:49;13.51;118.99
66726;HTU21D;53638;51.062;5.804;2023-11-19T09:55:15;13.68;118.99
66726;HTU21D;53638;51.062;5.804;2023-11-19T09:57:41;13.85;118.99
66726;HTU21D;53638;51.062;5.804;2023-11-19T10:00:10;13.92;118.99
66726;HTU21D;53638;51.062;5.804;2023-11-19T10:02:38;13.97;118.99
66726;HTU21D;53638;51.062;5.804;2023-11-19T10:05:07;14.01;118.99
66726;HTU21D;53638;51.062;5.804;2023-11-19T10:07:33;14.04;118.99
66726;HTU21D;53638;51.062;5.804;2023-11-19T10:10:02;13.91;118.99
66726;HTU21D;53638;51.062;5.804;2023-11-19T10:12:30;13.71;118.99
66726;HTU21D;53638;51.062;5.804;2023-11-19T10:14:58;13.74;118.99
66726;HTU21D;53638;51.062;5.804;2023-11-19T10:17:28;13.73;118.99
66726;HTU21D;53638;51.062;5.804;2023-11-19T10:19:55;13.69;118.99
66726;HTU21D;53638;51.062;5.804;2023-11-19T10:22:23;13.67;118.99
66726;HTU21D;53638;51.062;5.804;2023-11-19T10:24:49;13.61;118.99
66726;HTU21D;53638;51.062;5.804;2023-11-19T10:27:15;14.28;118.99
66726;HTU21D;53638;51.062;5.804;2023-11-19T10:29:45;15.04;118.99
66726;HTU21D;53638;51.062;5.804;2023-11-19T10:32:13;16.37;118.99
66726;HTU21D;53638;51.062;5.804;2023-11-19T10:34:40;16.24;118.99
66726;HTU21D;53638;51.062;5.804;2023-11-19T10:37:07;15.98;118.99
66726;HTU21D;53638;51.062;5.804;2023-11-19T10:39:52;15.87;118.99
66726;HTU21D;53638;51.062;5.804;2023-11-19T10:42:24;15.86;118.99
66726;HTU21D;53638;51.062;5.804;2023-11-19T10:44:50;17.19;115.44
66726;HTU21D;53638;51.062;5.804;2023-11-19T10:47:19;18.49;106.75
66726;HTU21D;53638;51.062;5.804;2023-11-19T10:49:46;19.31;93.26
66726;HTU21D;53638;51.062;5.804;2023-11-19T10:52:17;18.64;94.41
66726;HTU21D;53638;51.062;5.804;2023-11-19T10:54:50;18.47;92.25
66726;HTU21D;53638;51.062;5.804;2023-11-19T10:57:20;17.34;95.58
66726;HTU21D;53638;51.062;5.804;2023-11-19T10:59:47;17.44;96.03
66726;HTU21D;53638;51.062;5.804;2023-11-19T11:02:19;17.93;91.89
66726;HTU21D;53638;51.062;5.804;2023-11-19T11:04:47;17.45;92.18
66726;HTU21D;53638;51.062;5.804;2023-11-19T11:07:15;16.15;98.33
66726;HTU21D;53638;51.062;5.804;2023-11-19T11:09:42;15.47;104.10
66726;HTU21D;53638;51.062;5.804;2023-11-19T11:12:09;14.91;107.18
66726;HTU21D;53638;51.062;5.804;2023-11-19T11:14:38;14.72;111.97
66726;HTU21D;53638;51.062;5.804;2023-11-19T11:17:09;14.41;113.14
66726;HTU21D;53638;51.062;5.804;2023-11-19T11:19:37;14.36;116.41
66726;HTU21D;53638;51.062;5.804;2023-11-19T11:22:05;14.48;116.30
66726;HTU21D;53638;51.062;5.804;2023-11-19T11:27:55;14.42;118.87
66726;HTU21D;53638;51.062;5.804;2023-11-19T11:30:39;14.40;118.56
66726;HTU21D;53638;51.062;5.804;2023-11-19T11:33:15;14.35;116.74
66726;HTU21D;53638;51.062;5.804;2023-11-19T11:35:59;14.25;116.33
66726;HTU21D;53638;51.062;5.804;2023-11-19T11:38:30;14.28;117.29
66726;HTU21D;53638;51.062;5.804;2023-11-19T11:41:21;14.18;118.74
66726;HTU21D;53638;51.062;5.804;2023-11-19T11:43:50;14.04;118.99
66726;HTU21D;53638;51.062;5.804;2023-11-19T11:49:03;14.00;118.99
66726;HTU21D;53638;51.062;5.804;2023-11-19T11:54:09;13.92;118.99
66726;HTU21D;53638;51.062;5.804;2023-11-19T11:56:37;12.61;118.99
66726;HTU21D;53638;51.062;5.804;2023-11-19T11:59:07;11.96;118.99
66726;HTU21D;53638;51.062;5.804;2023-11-19T12:01:35;11.94;118.99
66726;HTU21D;53638;51.062;5.804;2023-11-19T12:04:01;11.85;118.99
66726;HTU21D;53638;51.062;5.804;2023-11-19T12:06:28;11.76;118.99
66726;HTU21D;53638;51.062;5.804;2023-11-19T12:08:59;11.74;118.99
66726;HTU21D;53638;51.062;5.804;2023-11-19T12:11:25;12.29;118.99
66726;HTU21D;53638;51.062;5.804;2023-11-19T12:13:55;12.84;118.99
66726;HTU21D;53638;51.062;5.804;2023-11-19T12:16:25;13.59;118.99
66726;HTU21D;53638;51.062;5.804;2023-11-19T12:18:54;13.81;118.99
66726;HTU21D;53638;51.062;5.804;2023-11-19T12:21:29;13.98;118.99
66726;HTU21D;53638;51.062;5.804;2023-11-19T12:23:58;13.88;118.99
66726;HTU21D;53638;51.062;5.804;2023-11-19T12:26:36;13.63;118.99
66726;HTU21D;53638;51.062;5.804;2023-11-19T12:29:03;13.16;118.99
66726;HTU21D;53638;51.062;5.804;2023-11-19T12:31:29;12.90;118.99
66726;HTU21D;53638;51.062;5.804;2023-11-19T12:33:56;13.53;118.99
66726;HTU21D;53638;51.062;5.804;2023-11-19T12:36:22;14.07;118.99
66726;HTU21D;53638;51.062;5.804;2023-11-19T12:38:48;15.46;118.99
66726;HTU21D;53638;51.062;5.804;2023-11-19T12:41:14;16.13;118.99
66726;HTU21D;53638;51.062;5.804;2023-11-19T12:43:43;16.58;118.99
66726;HTU21D;53638;51.062;5.804;2023-11-19T12:46:23;15.95;118.99
66726;HTU21D;53638;51.062;5.804;2023-11-19T12:48:50;15.18;118.99
66726;HTU21D;53638;51.062;5.804;2023-11-19T12:51:17;14.77;118.99
66726;HTU21D;53638;51.062;5.804;2023-11-19T12:53:52;14.66;118.99
66726;HTU21D;53638;51.062;5.804;2023-11-19T12:56:24;14.57;118.99
66726;HTU21D;53638;51.062;5.804;2023-11-19T12:58:50;14.51;118.99
66726;HTU21D;53638;51.062;5.804;2023-11-19T13:01:18;14.51;118.99
66726;HTU21D;53638;51.062;5.804;2023-11-19T13:03:45;14.24;118.99
66726;HTU21D;53638;51.062;5.804;2023-11-19T13:06:13;13.84;118.99
66726;HTU21D;53638;51.062;5.804;2023-11-19T13:08:47;13.54;118.99
66726;HTU21D;53638;51.062;5.804;2023-11-19T13:11:31;13.27;118.99
66726;HTU21D;53638;51.062;5.804;2023-11-19T13:14:01;13.01;118.99
66726;HTU21D;53638;51.062;5.804;2023-11-19T13:16:30;12.38;118.99
66726;HTU21D;53638;51.062;5.804;2023-11-19T13:18:57;11.75;118.99
66726;HTU21D;53638;51.062;5.804;2023-11-19T13:21:24;11.62;118.99
66726;HTU21D;53638;51.062;5.804;2023-11-19T13:23:50;11.60;118.99
66726;HTU21D;53638;51.062;5.804;2023-11-19T13:26:16;11.68;118.99
66726;HTU21D;53638;51.062;5.804;2023-11-19T13:28:42;11.68;118.99
66726;HTU21D;53638;51.062;5.804;2023-11-19T13:31:08;11.62;118.99
66726;HTU21D;53638;51.062;5.804;2023-11-19T13:33:34;11.62;118.99
66726;HTU21D;53638;51.062;5.804;2023-11-19T13:36:00;11.46;118.99
66726;HTU21D;53638;51.062;5.804;2023-11-19T13:38:32;11.60;118.99
66726;HTU21D;53638;51.062;5.804;2023-11-19T13:40:58;11.63;118.99
66726;HTU21D;53638;51.062;5.804;2023-11-19T13:43:25;11.56;118.99
66726;HTU21D;53638;51.062;5.804;2023-11-19T13:45:54;11.42;118.99
66726;HTU21D;53638;51.062;5.804;2023-11-19T13:48:20;11.40;118.99
66726;HTU21D;53638;51.062;5.804;2023-11-19T13:50:46;11.51;118.99
66726;HTU21D;53638;51.062;5.804;2023-11-19T13:53:14;11.46;118.99
66726;HTU21D;53638;51.062;5.804;2023-11-19T13:55:42;11.63;118.99
66726;HTU21D;53638;51.062;5.804;2023-11-19T13:58:08;11.79;118.99
66726;HTU21D;53638;51.062;5.804;2023-11-19T14:00:36;11.91;118.99
66726;HTU21D;53638;51.062;5.804;2023-11-19T14:03:03;12.02;118.99
66726;HTU21D;53638;51.062;5.804;2023-11-19T14:05:29;12.00;118.99
66726;HTU21D;53638;51.062;5.804;2023-11-19T14:07:54;12.05;118.99
66726;HTU21D;53638;51.062;5.804;2023-11-19T14:10:22;12.05;118.99
66726;HTU21D;53638;51.062;5.804;2023-11-19T14:12:48;12.07;118.99
66726;HTU21D;53638;51.062;5.804;2023-11-19T14:15:16;12.02;118.99
66726;HTU21D;53638;51.062;5.804;2023-11-19T14:17:43;11.96;118.99
66726;HTU21D;53638;51.062;5.804;2023-11-19T14:20:22;11.45;118.99
66726;HTU21D;53638;51.062;5.804;2023-11-19T14:23:52;11.19;118.99
66726;HTU21D;53638;51.062;5.804;2023-11-19T14:26:19;11.08;118.99
66726;HTU21D;53638;51.062;5.804;2023-11-19T14:28:45;11.18;118.99
66726;HTU21D;53638;51.062;5.804;2023-11-19T14:31:48;11.17;118.99
66726;HTU21D;53638;51.062;5.804;2023-11-19T14:34:34;10.98;118.99
66726;HTU21D;53638;51.062;5.804;2023-11-19T14:37:20;11.01;118.99
66726;HTU21D;53638;51.062;5.804;2023-11-19T14:40:04;10.97;118.99
66726;HTU21D;53638;51.062;5.804;2023-11-19T14:42:55;11.03;118.99
66726;HTU21D;53638;51.062;5.804;2023-11-19T14:45:41;11.08;118.99
66726;HTU21D;53638;51.062;5.804;2023-11-19T14:48:07;11.19;118.99
66726;HTU21D;53638;51.062;5.804;2023-11-19T14:50:33;11.10;118.99
66726;HTU21D;53638;51.062;5.804;2023-11-19T14:52:59;11.22;118.99
66726;HTU21D;53638;51.062;5.804;2023-11-19T14:55:25;11.28;118.99
66726;HTU21D;53638;51.062;5.804;2023-11-19T14:57:52;11.33;118.99
66726;HTU21D;53638;51.062;5.804;2023-11-19T15:00:23;11.25;118.99
66726;HTU21D;53638;51.062;5.804;2023-11-19T15:02:51;11.04;118.99
66726;HTU21D;53638;51.062;5.804;2023-11-19T15:05:17;11.14;118.99
66726;HTU21D;53638;51.062;5.804;2023-11-19T15:07:43;11.14;118.99
66726;HTU21D;53638;51.062;5.804;2023-11-19T15:10:08;11.27;118.99
66726;HTU21D;53638;51.062;5.804;2023-11-19T15:12:36;11.13;118.99
66726;HTU21D;53638;51.062;5.804;2023-11-19T15:15:07;11.18;118.99
66726;HTU21D;53638;51.062;5.804;2023-11-19T15:17:34;11.30;118.99
66726;HTU21D;53638;51.062;5.804;2023-11-19T15:19:59;11.22;118.99
66726;HTU21D;53638;51.062;5.804;2023-11-19T15:22:25;11.30;118.99
66726;HTU21D;53638;51.062;5.804;2023-11-19T15:24:52;11.29;118.99
66726;HTU21D;53638;51.062;5.804;2023-11-19T15:27:18;11.28;118.99
66726;HTU21D;53638;51.062;5.804;2023-11-19T15:29:44;11.28;118.99